Time;durP1;ratioP1;P1;durP2;ratioP2;P2;SDS_P1;SDS_P2;PMS_P1;PMS_P2;Temp;Humidity;BMP_temperature;BMP_pressure;BME280_temperature;BME280_humidity;BME280_pressure;Samples;Min_cycle;Max_cycle;Signal;HPM_P1;HPM_P2
2023/04/21 00:00:58;;;;;;;25.40;14.43;;;;;;;7.10;100.00;101383.19;5226058;28;20029;-74
2023/04/21 00:03:28;;;;;;;24.33;13.82;;;;;;;7.10;100.00;101381.38;5226511;28;20075;-74
2023/04/21 00:06:00;;;;;;;25.02;14.65;;;;;;;7.11;100.00;101379.53;5226191;28;20440;-73
2023/04/21 00:08:31;;;;;;;27.67;14.43;;;;;;;7.12;100.00;101375.88;5226009;28;20021;-74
2023/04/21 00:11:01;;;;;;;24.63;15.10;;;;;;;7.12;100.00;101371.41;5225523;28;20397;-74
2023/04/21 00:13:33;;;;;;;24.25;15.25;;;;;;;7.09;100.00;101369.00;5208368;28;20029;-74
2023/04/21 00:16:04;;;;;;;27.10;15.98;;;;;;;7.07;100.00;101365.63;5225928;28;20025;-73
2023/04/21 00:18:34;;;;;;;27.98;16.58;;;;;;;7.07;100.00;101357.59;5225879;28;20031;-74
2023/04/21 00:21:05;;;;;;;31.58;16.45;;;;;;;7.09;100.00;101363.69;5225960;28;20029;-74
2023/04/21 00:23:35;;;;;;;28.23;16.65;;;;;;;7.10;100.00;101356.50;5225911;28;20021;-74
2023/04/21 00:26:06;;;;;;;28.20;16.65;;;;;;;7.05;100.00;101354.25;5226226;28;20078;-74
2023/04/21 00:28:36;;;;;;;29.60;17.45;;;;;;;7.03;100.00;101352.66;5191343;28;20024;-74
2023/04/21 00:31:07;;;;;;;31.20;17.38;;;;;;;7.02;100.00;101349.16;5226603;28;20025;-74
2023/04/21 00:33:37;;;;;;;31.42;17.10;;;;;;;6.98;100.00;101359.25;5226263;28;20017;-75
2023/04/21 00:36:08;;;;;;;33.45;17.67;;;;;;;6.98;100.00;101361.09;5225446;28;20033;-74
2023/04/21 00:38:39;;;;;;;31.45;17.95;;;;;;;6.98;100.00;101353.09;5225446;28;20688;-74
2023/04/21 00:41:09;;;;;;;33.35;18.65;;;;;;;6.95;100.00;101346.16;5225711;28;20071;-74
2023/04/21 00:43:59;;;;;;;29.33;17.65;;;;;;;6.93;100.00;101353.47;5225886;28;20489;-74
2023/04/21 00:46:29;;;;;;;35.53;19.02;;;;;;;6.92;100.00;101349.09;5225028;28;20027;-74
2023/04/21 00:49:03;;;;;;;34.92;20.23;;;;;;;6.94;100.00;101360.50;5225547;28;20545;-74
2023/04/21 00:51:35;;;;;;;43.33;21.85;;;;;;;6.94;100.00;101349.81;5225333;28;20025;-74
2023/04/21 00:54:07;;;;;;;40.72;21.48;;;;;;;6.96;100.00;101353.19;5213001;28;20017;-74
2023/04/21 00:56:37;;;;;;;43.95;22.83;;;;;;;6.96;100.00;101355.84;5223999;28;20057;-74
2023/04/21 00:59:07;;;;;;;41.10;21.95;;;;;;;6.94;100.00;101352.50;5225078;28;20071;-74
2023/04/21 01:01:38;;;;;;;46.38;24.10;;;;;;;6.91;100.00;101351.91;5226115;28;20028;-74
2023/04/21 01:04:09;;;;;;;44.42;23.92;;;;;;;6.87;100.00;101350.47;5208163;28;20035;-74
2023/04/21 01:06:41;;;;;;;43.78;24.23;;;;;;;6.84;100.00;101348.91;5226078;28;20389;-74
2023/04/21 01:09:12;;;;;;;47.33;25.85;;;;;;;6.80;100.00;101344.81;5225777;28;20394;-74
2023/04/21 01:12:01;;;;;;;45.85;25.83;;;;;;;6.78;100.00;101354.78;5226338;28;20031;-74
2023/04/21 01:14:31;;;;;;;51.05;26.42;;;;;;;6.75;100.00;101344.34;5231336;28;20025;-74
2023/04/21 01:17:04;;;;;;;49.95;24.77;;;;;;;6.73;100.00;101348.97;5227194;28;20029;-74
2023/04/21 01:19:39;;;;;;;52.85;26.58;;;;;;;6.75;100.00;101352.34;5226679;28;20021;-74
2023/04/21 01:22:11;;;;;;;49.15;25.48;;;;;;;6.73;100.00;101348.97;5226152;28;20036;-74
2023/04/21 01:24:43;;;;;;;55.17;26.40;;;;;;;6.70;100.00;101354.56;5208768;28;20033;-74
2023/04/21 01:27:17;;;;;;;53.22;26.10;;;;;;;6.70;100.00;101352.72;5225757;28;20386;-74
2023/04/21 01:29:50;;;;;;;56.03;28.17;;;;;;;6.70;100.00;101349.22;5208160;28;20096;-74
2023/04/21 01:32:24;;;;;;;54.47;28.35;;;;;;;6.69;100.00;101348.38;5225305;28;20021;-74
2023/04/21 01:34:56;;;;;;;61.80;28.70;;;;;;;6.67;100.00;101346.81;5225722;28;20507;-74
2023/04/21 01:37:30;;;;;;;57.80;28.50;;;;;;;6.63;100.00;101348.06;5226005;28;20158;-74
2023/04/21 01:40:08;;;;;;;60.60;28.95;;;;;;;6.62;100.00;101343.69;5225386;28;20122;-75
2023/04/21 01:42:40;;;;;;;58.85;29.08;;;;;;;6.60;100.00;101342.97;5225160;28;20032;-74
2023/04/21 01:45:13;;;;;;;59.00;29.45;;;;;;;6.60;100.00;101342.97;5225386;28;20443;-75
2023/04/21 01:47:44;;;;;;;54.80;28.80;;;;;;;6.58;100.00;101339.59;5225051;28;20362;-75
2023/04/21 01:50:15;;;;;;;60.40;29.77;;;;;;;6.56;100.00;101339.72;5226336;28;20037;-75
2023/04/21 01:52:54;;;;;;;62.78;29.85;;;;;;;6.55;100.00;101338.03;5225339;28;20430;-74
2023/04/21 01:55:39;;;;;;;61.40;30.10;;;;;;;6.56;100.00;101336.19;5225865;28;20029;-75
2023/04/21 01:58:11;;;;;;;60.03;29.95;;;;;;;6.54;100.00;101333.66;5206941;28;20029;-75
2023/04/21 02:00:41;;;;;;;64.40;30.70;;;;;;;6.55;100.00;101337.19;5224993;28;20028;-75
2023/04/21 02:03:12;;;;;;;64.47;30.73;;;;;;;6.56;100.00;101334.38;5224558;28;20028;-75
2023/04/21 02:05:43;;;;;;;58.47;30.58;;;;;;;6.54;100.00;101336.34;5223469;28;20033;-75
2023/04/21 02:08:13;;;;;;;67.63;32.47;;;;;;;6.52;100.00;101343.59;5224757;28;20025;-75
2023/04/21 02:10:44;;;;;;;73.50;33.65;;;;;;;6.52;100.00;101334.75;5224600;28;20116;-75
2023/04/21 02:13:15;;;;;;;71.55;32.92;;;;;;;6.55;100.00;101338.03;5206953;28;20036;-75
2023/04/21 02:15:45;;;;;;;63.72;30.98;;;;;;;6.54;100.00;101331.00;5224463;28;20021;-75
2023/04/21 02:18:16;;;;;;;72.97;32.50;;;;;;;6.54;100.00;101333.66;5224027;28;20021;-75
2023/04/21 02:20:46;;;;;;;70.55;34.10;;;;;;;6.54;100.00;101331.00;5224393;28;20397;-75
2023/04/21 02:23:17;;;;;;;68.35;32.08;;;;;;;6.51;100.00;101336.59;5206921;28;20082;-75
2023/04/21 02:25:47;;;;;;;66.57;32.60;;;;;;;6.52;100.00;101326.75;5224213;28;20708;-75
2023/04/21 02:28:18;;;;;;;68.65;32.53;;;;;;;6.50;100.00;101324.22;5224098;28;20104;-75
2023/04/21 02:30:48;;;;;;;70.03;34.13;;;;;;;6.47;100.00;101320.00;5223797;28;20025;-75
2023/04/21 02:33:19;;;;;;;67.90;32.90;;;;;;;6.47;100.00;101322.66;5224140;28;20052;-75
2023/04/21 02:35:49;;;;;;;69.65;32.78;;;;;;;6.48;100.00;101327.03;5224616;28;20017;-75
2023/04/21 02:38:20;;;;;;;72.22;33.67;;;;;;;6.47;100.00;101313.81;5223888;28;20028;-75
2023/04/21 02:40:50;;;;;;;73.30;33.55;;;;;;;6.50;100.00;101305.56;5223677;28;20520;-75
2023/04/21 02:43:21;;;;;;;74.53;34.03;;;;;;;6.49;100.00;101299.41;5223737;28;20116;-75
2023/04/21 02:45:51;;;;;;;71.70;33.55;;;;;;;6.50;100.00;101300.25;5224120;28;20477;-75
2023/04/21 02:48:22;;;;;;;75.28;36.13;;;;;;;6.53;100.00;101289.34;5223534;28;20659;-75
2023/04/21 02:50:53;;;;;;;71.63;34.47;;;;;;;6.52;100.00;101295.63;5223953;28;20027;-75
2023/04/21 02:53:23;;;;;;;75.30;34.85;;;;;;;6.49;100.00;101298.56;5223614;28;20025;-75
2023/04/21 02:55:54;;;;;;;74.78;33.05;;;;;;;6.48;100.00;101299.53;5224039;28;20021;-75
2023/04/21 02:58:25;;;;;;;77.80;35.08;;;;;;;6.48;100.00;101288.88;5223646;28;20123;-75
2023/04/21 03:00:55;;;;;;;69.55;32.88;;;;;;;6.47;100.00;101288.00;5223864;28;20021;-75
2023/04/21 03:03:26;;;;;;;72.38;31.95;;;;;;;6.45;100.00;101284.63;5224118;28;20053;-75
2023/04/21 03:05:58;;;;;;;77.45;35.25;;;;;;;6.42;100.00;101292.88;5223224;28;20713;-75
2023/04/21 03:08:29;;;;;;;71.65;33.03;;;;;;;6.42;100.00;101292.88;5206138;28;20107;-75
2023/04/21 03:11:00;;;;;;;75.55;33.83;;;;;;;6.39;100.00;101286.97;5223461;28;20025;-75
2023/04/21 03:13:30;;;;;;;73.47;33.13;;;;;;;6.40;100.00;101284.19;5223754;28;20032;-75
2023/04/21 03:16:01;;;;;;;69.35;32.65;;;;;;;6.39;100.00;101281.66;5224901;28;20034;-75
2023/04/21 03:18:34;;;;;;;72.97;33.70;;;;;;;6.42;100.00;101286.69;5227531;28;20036;-75
2023/04/21 03:21:05;;;;;;;71.03;32.83;;;;;;;6.44;100.00;101287.44;5209685;28;20029;-75
2023/04/21 03:23:36;;;;;;;73.45;35.75;;;;;;;6.44;100.00;101287.44;5228185;28;20082;-75
2023/04/21 03:26:07;;;;;;;72.28;31.98;;;;;;;6.44;100.00;101285.63;5227713;28;20025;-75
2023/04/21 03:28:37;;;;;;;70.53;33.10;;;;;;;6.43;100.00;101286.59;5227453;28;20039;-75
2023/04/21 03:31:08;;;;;;;72.07;34.15;;;;;;;6.42;100.00;101282.22;5227202;28;20429;-75
2023/04/21 03:33:39;;;;;;;74.15;34.60;;;;;;;6.43;100.00;101277.75;5227702;28;20033;-75
2023/04/21 03:36:09;;;;;;;71.57;32.60;;;;;;;6.42;100.00;101287.53;5227479;28;20021;-75
2023/04/21 03:38:40;;;;;;;76.30;33.25;;;;;;;6.39;100.00;101274.50;5209543;28;20031;-75
2023/04/21 03:41:10;;;;;;;75.45;32.97;;;;;;;6.34;100.00;101282.03;5225025;28;20108;-75
2023/04/21 03:43:41;;;;;;;70.45;32.55;;;;;;;6.32;100.00;101275.97;5227121;28;20032;-75
2023/04/21 03:46:30;;;;;;;70.93;32.00;;;;;;;6.32;100.00;101275.97;5226920;28;20625;-75
2023/04/21 03:49:01;;;;;;;72.97;34.97;;;;;;;6.31;100.00;101274.28;5227421;28;20103;-75
2023/04/21 03:51:31;;;;;;;73.80;33.95;;;;;;;6.30;100.00;101277.94;5226935;28;20115;-75
2023/04/21 03:54:02;;;;;;;78.57;34.80;;;;;;;6.32;100.00;101273.28;5227141;28;20029;-75
2023/04/21 03:56:32;;;;;;;79.60;34.78;;;;;;;6.34;100.00;101260.72;5208911;28;20447;-75
2023/04/21 03:59:03;;;;;;;77.00;34.55;;;;;;;6.30;100.00;101264.59;5226976;28;20032;-75
2023/04/21 04:01:35;;;;;;;79.30;33.92;;;;;;;6.27;100.00;101251.53;5226801;28;20485;-75
2023/04/21 04:04:05;;;;;;;76.75;34.80;;;;;;;6.22;100.00;101259.94;5227134;28;20021;-75
2023/04/21 04:06:36;;;;;;;79.25;34.58;;;;;;;6.12;100.00;101247.47;5208298;28;20397;-75
2023/04/21 04:09:07;;;;;;;71.68;33.28;;;;;;;6.03;100.00;101251.78;5227065;28;20107;-75
2023/04/21 04:11:38;;;;;;;75.95;34.83;;;;;;;5.95;100.00;101249.72;5226713;28;20029;-75
2023/04/21 04:14:08;;;;;;;81.93;34.20;;;;;;;5.89;100.00;101252.88;5226798;28;20027;-75
2023/04/21 04:16:40;;;;;;;72.05;31.48;;;;;;;5.81;100.00;101255.31;5208506;28;20493;-75
2023/04/21 04:19:10;;;;;;;73.45;33.70;;;;;;;5.74;100.00;101243.47;5226449;28;20029;-75
2023/04/21 04:21:41;;;;;;;84.35;35.25;;;;;;;5.62;100.00;101245.34;5226724;28;20481;-75
2023/04/21 04:24:13;;;;;;;74.78;33.65;;;;;;;5.56;100.00;101244.97;5226668;28;20029;-75
2023/04/21 04:26:44;;;;;;;81.40;34.58;;;;;;;5.48;100.00;101244.75;5199730;28;20025;-75
2023/04/21 04:29:15;;;;;;;82.07;34.83;;;;;;;5.40;100.00;101245.34;5225535;28;20393;-75
2023/04/21 04:31:45;;;;;;;79.25;33.70;;;;;;;5.31;100.00;101240.75;5226351;28;20029;-75
2023/04/21 04:34:16;;;;;;;78.50;34.20;;;;;;;5.24;100.00;101251.06;5226559;28;20021;-75
2023/04/21 04:36:49;;;;;;;83.53;35.90;;;;;;;5.24;100.00;101259.03;5225940;28;20624;-75
2023/04/21 04:39:21;;;;;;;82.45;35.58;;;;;;;5.24;100.00;101264.34;5208728;28;20570;-75
2023/04/21 04:41:51;;;;;;;89.53;37.42;;;;;;;5.25;100.00;101262.53;5225492;28;20029;-75
2023/04/21 04:44:22;;;;;;;82.40;35.85;;;;;;;5.30;100.00;101257.69;5226376;28;20032;-75
2023/04/21 04:46:53;;;;;;;88.35;37.70;;;;;;;5.36;100.00;101266.03;5225642;28;20044;-75
2023/04/21 04:49:24;;;;;;;95.13;37.22;;;;;;;5.42;100.00;101270.00;5226119;28;20065;-75
2023/04/21 04:51:55;;;;;;;95.35;38.05;;;;;;;5.49;100.00;101278.38;5226118;28;20635;-75
2023/04/21 04:54:27;;;;;;;92.07;37.67;;;;;;;5.54;100.00;101273.53;5207988;28;20065;-75
2023/04/21 04:56:58;;;;;;;89.97;36.50;;;;;;;5.57;100.00;101275.91;5225736;28;20029;-75
2023/04/21 04:59:29;;;;;;;88.90;37.00;;;;;;;5.56;100.00;101277.75;5225890;28;20020;-75
2023/04/21 05:02:00;;;;;;;86.38;36.50;;;;;;;5.51;100.00;101277.25;5226062;28;20025;-75
2023/04/21 05:04:35;;;;;;;85.30;37.72;;;;;;;5.48;100.00;101290.00;5225894;28;20029;-75
2023/04/21 05:07:06;;;;;;;89.85;36.28;;;;;;;5.45;100.00;101288.41;5226939;28;20374;-75
2023/04/21 05:09:37;;;;;;;84.82;35.60;;;;;;;5.41;100.00;101290.47;5208682;28;20508;-75
2023/04/21 05:12:07;;;;;;;93.35;37.35;;;;;;;5.42;100.00;101294.84;5226063;28;20037;-75
2023/04/21 05:14:38;;;;;;;87.75;36.03;;;;;;;5.39;100.00;101291.56;5225916;28;20029;-75
2023/04/21 05:17:08;;;;;;;88.40;36.15;;;;;;;5.35;100.00;101287.44;5224992;28;20070;-75
2023/04/21 05:19:39;;;;;;;87.97;37.10;;;;;;;5.31;100.00;101294.81;5218955;28;20029;-75
2023/04/21 05:22:09;;;;;;;92.18;37.42;;;;;;;5.38;100.00;101301.38;5225483;28;20025;-75
2023/04/21 05:24:41;;;;;;;95.57;38.42;;;;;;;5.42;100.00;101305.47;5225624;28;20025;-75
2023/04/21 05:27:12;;;;;;;96.28;38.83;;;;;;;5.49;100.00;101304.97;5225181;28;20150;-75
2023/04/21 05:29:42;;;;;;;98.13;38.83;;;;;;;5.54;100.00;101308.13;5225004;28;20108;-75
2023/04/21 05:32:14;;;;;;;93.25;39.10;;;;;;;5.60;100.00;101304.97;5225644;28;20112;-75
2023/04/21 05:34:44;;;;;;;92.78;37.10;;;;;;;5.65;100.00;101300.97;5207760;28;20485;-75
2023/04/21 05:37:15;;;;;;;94.65;37.70;;;;;;;5.69;100.00;101309.56;5224550;28;20029;-75
2023/04/21 05:39:45;;;;;;;92.28;38.83;;;;;;;5.75;100.00;101303.72;5224637;28;20017;-75
2023/04/21 05:42:17;;;;;;;96.97;40.20;;;;;;;5.81;100.00;101294.41;5224636;28;20098;-74
2023/04/21 05:44:47;;;;;;;95.13;39.65;;;;;;;5.86;100.00;101294.88;5225408;28;20021;-75
2023/04/21 05:47:18;;;;;;;95.53;39.85;;;;;;;5.94;100.00;101303.97;5210926;28;20021;-75
2023/04/21 05:50:05;;;;;;;83.40;36.95;;;;;;;6.16;100.00;101303.03;5225434;28;20025;-75
2023/04/21 05:52:36;;;;;;;86.10;38.50;;;;;;;6.55;100.00;101306.03;5224722;28;20401;-75
2023/04/21 05:55:06;;;;;;;72.43;34.50;;;;;;;7.05;100.00;101300.88;5225469;28;20050;-75
2023/04/21 05:57:37;;;;;;;74.70;34.97;;;;;;;7.56;100.00;101304.47;5224349;28;20040;-75
2023/04/21 06:00:08;;;;;;;69.90;33.97;;;;;;;7.86;100.00;101300.91;5224794;28;20040;-75
2023/04/21 06:02:38;;;;;;;60.83;30.45;;;;;;;8.18;100.00;101296.16;5207230;28;20035;-75
2023/04/21 06:05:09;;;;;;;62.60;33.45;;;;;;;8.55;100.00;101293.66;5225024;28;20025;-75
2023/04/21 06:07:40;;;;;;;58.00;31.25;;;;;;;8.81;100.00;101298.41;5223894;28;20103;-75
2023/04/21 06:10:12;;;;;;;57.40;29.70;;;;;;;9.12;100.00;101282.13;5224479;28;20408;-75
2023/04/21 06:12:43;;;;;;;54.67;30.85;;;;;;;9.40;100.00;101283.84;5224154;28;20017;-75
2023/04/21 06:15:13;;;;;;;54.05;29.90;;;;;;;9.53;100.00;101267.41;5224654;28;20036;-75
2023/04/21 06:17:44;;;;;;;52.22;29.02;;;;;;;9.73;100.00;101273.50;5223374;28;20058;-75
2023/04/21 06:20:16;;;;;;;52.72;28.73;;;;;;;10.04;100.00;101274.00;5213733;28;20100;-75
2023/04/21 06:22:47;;;;;;;47.47;28.80;;;;;;;10.06;100.00;101275.56;5193540;28;20108;-75
2023/04/21 06:25:17;;;;;;;49.78;29.67;;;;;;;10.22;100.00;101265.97;5224008;28;20462;-75
2023/04/21 06:27:48;;;;;;;49.65;28.80;;;;;;;10.00;100.00;101276.16;5224094;28;20029;-75
2023/04/21 06:30:18;;;;;;;44.78;27.27;;;;;;;10.37;100.00;101272.50;5223678;28;20120;-76
2023/04/21 06:32:49;;;;;;;47.58;28.42;;;;;;;10.49;100.00;101268.59;5220686;28;20493;-75
2023/04/21 06:35:20;;;;;;;47.75;28.45;;;;;;;11.01;100.00;101275.84;5215266;28;20029;-75
2023/04/21 06:37:53;;;;;;;42.78;27.00;;;;;;;11.26;100.00;101279.50;5204156;28;20383;-75
2023/04/21 06:40:24;;;;;;;44.72;27.58;;;;;;;11.33;100.00;101278.69;5219586;28;20088;-75
2023/04/21 06:42:54;;;;;;;43.53;27.08;;;;;;;11.49;100.00;101285.97;5221642;28;20147;-75
2023/04/21 06:45:25;;;;;;;42.97;26.15;;;;;;;11.33;100.00;101280.53;5222480;28;20404;-75
2023/04/21 06:47:55;;;;;;;41.80;26.38;;;;;;;11.62;100.00;101278.31;5221637;28;20031;-75
2023/04/21 06:50:26;;;;;;;41.95;25.85;;;;;;;12.12;100.00;101282.00;5221807;28;20021;-75
2023/04/21 06:52:57;;;;;;;39.40;24.77;;;;;;;12.31;100.00;101278.16;5221761;28;20689;-75
2023/04/21 06:55:27;;;;;;;44.22;25.70;;;;;;;12.23;100.00;101276.28;5222519;28;20025;-73
2023/04/21 06:57:58;;;;;;;38.85;24.63;;;;;;;12.27;100.00;101274.97;5221854;28;20032;-73
2023/04/21 07:00:28;;;;;;;43.20;22.90;;;;;;;12.39;100.00;101278.16;5222352;28;20059;-73
2023/04/21 07:02:58;;;;;;;36.65;23.50;;;;;;;12.60;100.00;101265.06;5222174;28;20017;-73
2023/04/21 07:05:29;;;;;;;35.25;22.83;;;;;;;12.18;100.00;101268.72;5221847;28;20499;-73
2023/04/21 07:08:00;;;;;;;37.58;23.02;;;;;;;11.93;100.00;101270.53;5221669;28;20021;-73
2023/04/21 07:10:30;;;;;;;36.50;23.20;;;;;;;12.21;100.00;101264.88;5222012;28;20028;-73
2023/04/21 07:13:01;;;;;;;32.85;22.48;;;;;;;12.40;100.00;101266.41;5204370;28;20401;-73
2023/04/21 07:15:31;;;;;;;37.58;24.05;;;;;;;12.04;100.00;101260.47;5221996;28;20413;-73
2023/04/21 07:18:02;;;;;;;36.40;23.33;;;;;;;12.12;100.00;101272.09;5224433;28;20460;-73
2023/04/21 07:20:33;;;;;;;33.83;21.95;;;;;;;12.75;100.00;101270.59;5221726;28;20021;-73
2023/04/21 07:23:03;;;;;;;33.55;21.13;;;;;;;12.81;100.00;101269.06;5222173;28;20478;-73
2023/04/21 07:25:34;;;;;;;33.60;20.92;;;;;;;13.06;100.00;101280.63;5220556;28;20033;-74
2023/04/21 07:28:05;;;;;;;31.55;20.60;;;;;;;13.24;100.00;101275.88;5228662;28;20032;-73
2023/04/21 07:30:36;;;;;;;34.35;21.08;;;;;;;13.20;100.00;101278.06;5211492;28;20036;-73
2023/04/21 07:33:07;;;;;;;31.90;19.80;;;;;;;13.03;100.00;101279.13;5211044;28;20436;-74
2023/04/21 07:35:38;;;;;;;31.40;21.35;;;;;;;12.88;100.00;101262.81;5234603;28;20094;-74
2023/04/21 07:38:08;;;;;;;30.90;20.77;;;;;;;13.13;100.00;101282.44;5238941;28;20025;-74
2023/04/21 07:40:39;;;;;;;29.13;19.92;;;;;;;13.32;100.00;101277.72;5228245;28;20094;-73
2023/04/21 07:43:10;;;;;;;31.23;20.65;;;;;;;13.37;100.00;101278.03;5233260;28;20056;-73
2023/04/21 07:45:40;;;;;;;31.30;19.73;;;;;;;13.45;100.00;101278.88;5237102;28;20021;-73
2023/04/21 07:48:14;;;;;;;29.92;19.33;;;;;;;13.63;100.00;101277.75;5234120;28;20028;-73
2023/04/21 07:50:45;;;;;;;27.10;18.55;;;;;;;13.89;100.00;101272.06;5228697;28;20029;-73
2023/04/21 07:53:15;;;;;;;25.48;16.90;;;;;;;13.60;100.00;101272.72;5232573;28;20539;-73
2023/04/21 07:55:46;;;;;;;27.75;17.13;;;;;;;13.79;100.00;101276.84;5236317;28;20110;-74
2023/04/21 07:58:16;;;;;;;25.23;16.63;;;;;;;14.11;100.00;101273.97;5229098;28;20108;-73
2023/04/21 08:00:47;;;;;;;30.15;17.77;;;;;;;14.56;100.00;101268.72;5233742;28;20036;-73
2023/04/21 08:03:18;;;;;;;25.42;15.95;;;;;;;14.75;100.00;101263.66;5236256;28;20043;-73
2023/04/21 08:05:48;;;;;;;22.45;16.20;;;;;;;14.77;100.00;101267.03;5239861;28;20032;-74
2023/04/21 08:08:20;;;;;;;27.88;17.17;;;;;;;15.01;100.00;101262.41;5235349;28;20070;-73
2023/04/21 08:10:51;;;;;;;23.00;15.25;;;;;;;14.66;100.00;101258.50;5235703;28;20024;-73
2023/04/21 08:13:24;;;;;;;22.33;15.00;;;;;;;14.61;100.00;101260.91;5233381;28;20040;-73
2023/04/21 08:15:54;;;;;;;22.73;15.57;;;;;;;14.74;100.00;101251.19;5238194;28;20432;-73
2023/04/21 08:18:25;;;;;;;21.45;13.75;;;;;;;14.87;100.00;101245.16;5239464;28;20042;-74
2023/04/21 08:20:56;;;;;;;20.85;14.35;;;;;;;14.98;100.00;101244.69;5226627;28;20036;-74
2023/04/21 08:23:29;;;;;;;18.98;13.43;;;;;;;14.76;100.00;101240.22;5239023;28;20056;-74
2023/04/21 08:26:01;;;;;;;18.38;13.13;;;;;;;14.62;100.00;101246.44;5238933;28;20019;-73
2023/04/21 08:28:32;;;;;;;19.80;13.48;;;;;;;14.65;100.00;101248.75;5230761;28;20029;-74
2023/04/21 08:31:03;;;;;;;20.75;13.63;;;;;;;14.64;100.00;101249.75;5237379;28;20574;-74
2023/04/21 08:33:34;;;;;;;19.98;13.30;;;;;;;15.00;100.00;101253.44;5212735;28;20490;-74
2023/04/21 08:36:04;;;;;;;20.02;12.98;;;;;;;15.72;100.00;101255.50;5238495;28;20035;-74
2023/04/21 08:38:37;;;;;;;19.35;13.70;;;;;;;15.44;100.00;101249.91;5236330;28;20420;-74
2023/04/21 08:41:08;;;;;;;21.23;14.45;;;;;;;14.65;100.00;101252.28;5235178;28;20623;-74
2023/04/21 08:43:38;;;;;;;20.85;13.80;;;;;;;15.35;100.00;101255.59;5231384;28;20028;-74
2023/04/21 08:46:09;;;;;;;19.05;12.38;;;;;;;16.05;100.00;101245.00;5227577;28;20014;-74
2023/04/21 08:48:40;;;;;;;19.20;12.55;;;;;;;15.87;100.00;101246.50;5229005;28;20033;-74
2023/04/21 08:51:13;;;;;;;19.27;12.98;;;;;;;15.81;100.00;101242.66;5227188;28;20016;-74
2023/04/21 08:53:45;;;;;;;18.52;12.38;;;;;;;15.94;100.00;101237.41;5233272;28;20035;-74
2023/04/21 08:56:15;;;;;;;18.55;11.95;;;;;;;16.51;100.00;101243.78;5232897;28;20026;-74
2023/04/21 08:58:46;;;;;;;18.25;11.77;;;;;;;16.69;100.00;101236.00;5232119;28;20094;-74
2023/04/21 09:01:16;;;;;;;17.42;12.63;;;;;;;17.09;100.00;101236.31;5231801;28;20428;-74
2023/04/21 09:03:47;;;;;;;17.83;13.05;;;;;;;17.21;100.00;101242.00;5237190;28;20416;-74
2023/04/21 09:06:17;;;;;;;17.42;11.48;;;;;;;16.83;100.00;101237.81;5234402;28;20075;-74
2023/04/21 09:09:07;;;;;;;17.85;12.82;;;;;;;17.23;100.00;101242.66;5237262;28;20024;-74
2023/04/21 09:11:37;;;;;;;18.02;11.82;;;;;;;17.20;100.00;101243.88;5234075;28;20043;-74
2023/04/21 09:14:08;;;;;;;17.02;11.57;;;;;;;16.33;100.00;101241.53;5234240;28;20033;-74
2023/04/21 09:16:39;;;;;;;19.35;12.65;;;;;;;16.29;100.00;101235.69;5213663;28;20060;-74
2023/04/21 09:19:15;;;;;;;18.75;12.23;;;;;;;16.76;100.00;101236.91;5234694;28;20067;-74
2023/04/21 09:21:45;;;;;;;17.13;11.95;;;;;;;17.12;100.00;101244.06;5232130;28;20024;-74
2023/04/21 09:24:16;;;;;;;19.20;11.80;;;;;;;16.41;100.00;101229.72;5231752;28;20087;-73
2023/04/21 09:27:03;;;;;;;16.38;10.93;;;;;;;16.45;100.00;101236.44;5229514;28;20020;-74
2023/04/21 09:29:33;;;;;;;18.55;11.63;;;;;;;16.62;100.00;101228.84;5213255;28;20155;-73
2023/04/21 09:32:04;;;;;;;15.57;11.18;;;;;;;16.83;100.00;101226.13;5230181;28;20047;-74
2023/04/21 09:34:41;;;;;;;19.83;11.93;;;;;;;17.31;100.00;101240.59;5234011;28;20021;-74
2023/04/21 09:37:13;;;;;;;16.90;12.05;;;;;;;17.41;100.00;101233.97;5235257;28;20035;-74
2023/04/21 09:39:45;;;;;;;21.05;13.02;;;;;;;17.48;100.00;101234.84;5236286;28;20217;-74
2023/04/21 09:42:16;;;;;;;17.63;12.05;;;;;;;17.75;100.00;101230.38;5218999;28;20063;-74
2023/04/21 09:44:46;;;;;;;16.45;11.65;;;;;;;17.84;100.00;101221.84;5232967;28;20489;-74
2023/04/21 09:47:17;;;;;;;20.75;12.35;;;;;;;17.61;100.00;101208.59;5232812;28;20052;-74
2023/04/21 09:49:51;;;;;;;18.40;12.07;;;;;;;17.80;100.00;101217.03;5236939;28;20043;-74
2023/04/21 09:52:23;;;;;;;19.10;11.25;;;;;;;18.03;100.00;101209.38;5211601;28;20036;-74
2023/04/21 09:54:58;;;;;;;14.32;10.27;;;;;;;18.57;100.00;101205.59;5226667;28;20079;-74
2023/04/21 09:57:31;;;;;;;17.90;11.02;;;;;;;18.53;100.00;101204.38;5230952;28;20025;-74
2023/04/21 10:00:08;;;;;;;17.95;11.02;;;;;;;18.72;100.00;101197.25;5238669;28;20028;-74
2023/04/21 10:02:52;;;;;;;20.25;12.23;;;;;;;18.66;100.00;101186.38;5233962;28;20034;-73
2023/04/21 10:05:23;;;;;;;20.17;12.32;;;;;;;18.42;100.00;101185.13;5235626;28;20024;-74
2023/04/21 10:07:54;;;;;;;16.60;11.60;;;;;;;17.95;100.00;101174.25;5231132;28;20021;-74
2023/04/21 10:10:27;;;;;;;18.08;12.07;;;;;;;17.85;100.00;101185.50;5235165;28;20029;-74
2023/04/21 10:12:58;;;;;;;16.65;11.23;;;;;;;17.99;100.00;101175.53;5232108;28;20160;-74
2023/04/21 10:15:40;;;;;;;18.40;12.50;;;;;;;18.16;100.00;101175.09;5233857;28;20109;-74
2023/04/21 10:18:29;;;;;;;21.15;13.57;;;;;;;17.63;100.00;101183.97;5214258;28;20024;-74
2023/04/21 10:21:02;;;;;;;20.55;13.20;;;;;;;17.37;100.00;101173.03;5235129;28;20081;-74
2023/04/21 10:23:42;;;;;;;17.83;10.55;;;;;;;17.26;100.00;101178.00;5231169;28;20029;-74
2023/04/21 10:26:33;;;;;;;17.38;11.52;;;;;;;17.42;100.00;101167.81;5228601;28;20021;-74
2023/04/21 10:29:05;;;;;;;17.85;10.77;;;;;;;17.75;100.00;101163.38;5231060;28;20017;-74
2023/04/21 10:31:51;;;;;;;18.42;12.27;;;;;;;17.79;100.00;101161.91;5229655;28;20025;-74
2023/04/21 10:34:37;;;;;;;18.70;10.27;;;;;;;17.33;100.00;101164.47;5232474;28;20035;-74
2023/04/21 10:37:11;;;;;;;15.10;10.52;;;;;;;17.34;100.00;101144.44;5228625;28;20028;-74
2023/04/21 10:39:44;;;;;;;18.83;11.55;;;;;;;17.19;100.00;101157.31;5235844;28;20468;-74
2023/04/21 10:42:14;;;;;;;17.00;11.38;;;;;;;17.31;100.00;101148.38;5225443;28;20032;-74
2023/04/21 10:44:57;;;;;;;19.15;11.88;;;;;;;17.30;100.00;101146.72;5233674;28;20028;-74
2023/04/21 10:47:40;;;;;;;19.73;11.73;;;;;;;17.37;100.00;101137.78;5231433;28;20048;-74
2023/04/21 10:50:30;;;;;;;15.15;9.77;;;;;;;17.41;100.00;101134.44;5213098;28;20028;-74
2023/04/21 10:53:24;;;;;;;15.82;10.43;;;;;;;17.38;100.00;101129.44;5226356;28;20107;-74
2023/04/21 10:55:55;;;;;;;16.40;10.65;;;;;;;17.47;100.00;101130.94;5237046;28;20027;-74
2023/04/21 10:58:26;;;;;;;23.00;12.60;;;;;;;17.68;100.00;101113.66;5235560;28;20032;-74
2023/04/21 11:00:57;;;;;;;20.05;12.95;;;;;;;17.44;100.00;101125.09;5236291;28;20034;-74
2023/04/21 11:03:34;;;;;;;23.58;12.18;;;;;;;17.11;100.00;101119.53;5236507;28;20062;-74
2023/04/21 11:06:17;;;;;;;15.70;11.75;;;;;;;17.43;100.00;101110.69;5205958;28;20500;-74
2023/04/21 11:09:06;;;;;;;22.23;13.25;;;;;;;17.53;100.00;101104.88;5236792;28;20020;-74
2023/04/21 11:11:36;;;;;;;21.58;13.30;;;;;;;17.54;100.00;101101.94;5231706;28;20090;-74
2023/04/21 11:14:07;;;;;;;22.05;12.52;;;;;;;17.19;100.00;101089.56;5237068;28;20455;-74
2023/04/21 11:16:41;;;;;;;18.60;12.32;;;;;;;17.50;100.00;101094.41;5228601;28;20024;-74
2023/04/21 11:19:14;;;;;;;20.77;13.18;;;;;;;17.78;100.00;101086.16;5216986;28;20024;-74
2023/04/21 11:22:03;;;;;;;26.25;14.35;;;;;;;17.92;100.00;101095.94;5206590;28;20033;-74
2023/04/21 11:24:33;;;;;;;22.52;14.07;;;;;;;17.84;100.00;101074.47;5226733;28;20041;-74
2023/04/21 11:27:07;;;;;;;20.65;13.30;;;;;;;18.07;100.00;101060.44;5235573;28;20051;-74
2023/04/21 11:29:38;;;;;;;19.20;13.57;;;;;;;17.55;100.00;101070.22;5215184;28;20028;-74